sensor_id;sensor_type;location;lat;lon;timestamp;pressure;altitude;pressure_sealevel;temperature;humidity
3434;BME280;1730;41.932;25.548;2023-02-18T00:02:09;99906.97;;;5.91;100.00
3434;BME280;1730;41.932;25.548;2023-02-18T00:04:34;99902.03;;;5.84;100.00
3434;BME280;1730;41.932;25.548;2023-02-18T00:07:00;99898.22;;;5.63;100.00
3434;BME280;1730;41.932;25.548;2023-02-18T00:09:26;99899.31;;;5.48;100.00
3434;BME280;1730;41.932;25.548;2023-02-18T00:11:53;99914.38;;;5.24;100.00
3434;BME280;1730;41.932;25.548;2023-02-18T00:14:18;99769.72;;;4.40;100.00
3434;BME280;1730;41.932;25.548;2023-02-18T00:16:44;99912.34;;;5.40;100.00
3434;BME280;1730;41.932;25.548;2023-02-18T00:19:14;99910.97;;;5.47;100.00
3434;BME280;1730;41.932;25.548;2023-02-18T00:21:42;99924.31;;;5.60;100.00
3434;BME280;1730;41.932;25.548;2023-02-18T00:24:09;99932.91;;;5.52;100.00
3434;BME280;1730;41.932;25.548;2023-02-18T00:26:35;99913.19;;;5.40;100.00
3434;BME280;1730;41.932;25.548;2023-02-18T00:29:02;99851.50;;;4.93;100.00
3434;BME280;1730;41.932;25.548;2023-02-18T00:31:33;99856.66;;;5.09;100.00
3434;BME280;1730;41.932;25.548;2023-02-18T00:34:00;99914.81;;;5.18;100.00
3434;BME280;1730;41.932;25.548;2023-02-18T00:36:26;99916.63;;;5.42;100.00
3434;BME280;1730;41.932;25.548;2023-02-18T00:38:55;99903.47;;;5.27;100.00
3434;BME280;1730;41.932;25.548;2023-02-18T00:41:22;99914.19;;;5.39;100.00
3434;BME280;1730;41.932;25.548;2023-02-18T00:43:48;99897.69;;;5.45;100.00
3434;BME280;1730;41.932;25.548;2023-02-18T00:46:14;99899.06;;;5.64;100.00
3434;BME280;1730;41.932;25.548;2023-02-18T00:48:39;99822.84;;;5.20;100.00
3434;BME280;1730;41.932;25.548;2023-02-18T00:51:06;99830.88;;;4.95;100.00
3434;BME280;1730;41.932;25.548;2023-02-18T00:53:32;99885.41;;;5.18;100.00
3434;BME280;1730;41.932;25.548;2023-02-18T00:55:58;99880.72;;;5.09;100.00
3434;BME280;1730;41.932;25.548;2023-02-18T00:58:24;99875.75;;;5.53;100.00
3434;BME280;1730;41.932;25.548;2023-02-18T01:00:50;99870.41;;;5.40;100.00
3434;BME280;1730;41.932;25.548;2023-02-18T01:03:16;99871.72;;;5.35;100.00
3434;BME280;1730;41.932;25.548;2023-02-18T01:05:43;99833.53;;;5.20;100.00
3434;BME280;1730;41.932;25.548;2023-02-18T01:08:09;99829.91;;;4.83;100.00
3434;BME280;1730;41.932;25.548;2023-02-18T01:10:40;99863.91;;;5.19;100.00
3434;BME280;1730;41.932;25.548;2023-02-18T01:13:06;99844.78;;;5.25;100.00
3434;BME280;1730;41.932;25.548;2023-02-18T01:15:31;99319.06;;;1.97;100.00
3434;BME280;1730;41.932;25.548;2023-02-18T01:17:57;99843.25;;;4.96;100.00
3434;BME280;1730;41.932;25.548;2023-02-18T01:20:23;99439.41;;;2.54;100.00
3434;BME280;1730;41.932;25.548;2023-02-18T01:22:48;99836.41;;;5.05;100.00
3434;BME280;1730;41.932;25.548;2023-02-18T01:25:14;99845.72;;;4.86;100.00
3434;BME280;1730;41.932;25.548;2023-02-18T01:27:39;99777.78;;;4.78;100.00
3434;BME280;1730;41.932;25.548;2023-02-18T01:30:07;99797.75;;;4.97;100.00
3434;BME280;1730;41.932;25.548;2023-02-18T01:32:33;99812.88;;;5.22;100.00
3434;BME280;1730;41.932;25.548;2023-02-18T01:35:03;99654.94;;;4.27;100.00
3434;BME280;1730;41.932;25.548;2023-02-18T01:37:29;99808.88;;;5.04;100.00
3434;BME280;1730;41.932;25.548;2023-02-18T01:39:55;99811.00;;;4.86;100.00
3434;BME280;1730;41.932;25.548;2023-02-18T01:42:24;99805.84;;;4.96;100.00
3434;BME280;1730;41.932;25.548;2023-02-18T01:44:49;99682.78;;;4.23;100.00
3434;BME280;1730;41.932;25.548;2023-02-18T01:47:16;99800.94;;;5.15;100.00
3434;BME280;1730;41.932;25.548;2023-02-18T01:49:42;99797.03;;;5.44;100.00
3434;BME280;1730;41.932;25.548;2023-02-18T01:52:18;99181.44;;;1.75;100.00
3434;BME280;1730;41.932;25.548;2023-02-18T01:54:50;99798.69;;;5.22;100.00
3434;BME280;1730;41.932;25.548;2023-02-18T01:57:20;99791.53;;;5.10;100.00
3434;BME280;1730;41.932;25.548;2023-02-18T01:59:49;99790.59;;;4.98;100.00
3434;BME280;1730;41.932;25.548;2023-02-18T02:02:19;99805.66;;;4.99;100.00
3434;BME280;1730;41.932;25.548;2023-02-18T02:04:45;99769.62;;;4.79;100.00
3434;BME280;1730;41.932;25.548;2023-02-18T02:07:10;99800.94;;;5.15;100.00
3434;BME280;1730;41.932;25.548;2023-02-18T02:09:37;99797.09;;;4.94;100.00
3434;BME280;1730;41.932;25.548;2023-02-18T02:15:02;99808.88;;;5.04;100.00
3434;BME280;1730;41.932;25.548;2023-02-18T02:28:51;99804.78;;;5.11;100.00
3434;BME280;1730;41.932;25.548;2023-02-18T02:37:25;99803.91;;;5.23;100.00
3434;BME280;1730;41.932;25.548;2023-02-18T02:42:25;99801.28;;;4.98;100.00
3434;BME280;1730;41.932;25.548;2023-02-18T02:45:19;99801.16;;;4.99;100.00
3434;BME280;1730;41.932;25.548;2023-02-18T02:48:01;99807.25;;;5.02;100.00
3434;BME280;1730;41.932;25.548;2023-02-18T02:50:40;99801.69;;;4.92;100.00
3434;BME280;1730;41.932;25.548;2023-02-18T02:53:29;99816.44;;;4.97;100.00
3434;BME280;1730;41.932;25.548;2023-02-18T02:55:55;99701.38;;;4.37;100.00
3434;BME280;1730;41.932;25.548;2023-02-18T02:58:21;99818.03;;;5.25;100.00
3434;BME280;1730;41.932;25.548;2023-02-18T03:09:18;99817.81;;;5.16;100.00
3434;BME280;1730;41.932;25.548;2023-02-18T03:15:06;99745.91;;;4.49;100.00
3434;BME280;1730;41.932;25.548;2023-02-18T03:17:45;99833.56;;;4.95;100.00
3434;BME280;1730;41.932;25.548;2023-02-18T03:20:26;99828.72;;;4.87;100.00
3434;BME280;1730;41.932;25.548;2023-02-18T03:22:53;99755.09;;;4.45;100.00
3434;BME280;1730;41.932;25.548;2023-02-18T03:25:21;99820.28;;;4.93;100.00
3434;BME280;1730;41.932;25.548;2023-02-18T03:28:17;99571.34;;;3.51;100.00
3434;BME280;1730;41.932;25.548;2023-02-18T03:30:58;99818.78;;;4.89;100.00
3434;BME280;1730;41.932;25.548;2023-02-18T03:33:31;99818.56;;;4.80;100.00
3434;BME280;1730;41.932;25.548;2023-02-18T03:35:59;99807.12;;;4.65;100.00
3434;BME280;1730;41.932;25.548;2023-02-18T03:38:37;99777.22;;;4.60;100.00
3434;BME280;1730;41.932;25.548;2023-02-18T03:41:03;99771.63;;;4.25;100.00
3434;BME280;1730;41.932;25.548;2023-02-18T03:43:30;99815.31;;;4.37;100.00
3434;BME280;1730;41.932;25.548;2023-02-18T03:45:56;99694.59;;;3.54;100.00
3434;BME280;1730;41.932;25.548;2023-02-18T03:48:21;99815.72;;;4.04;100.00
3434;BME280;1730;41.932;25.548;2023-02-18T03:50:47;99813.69;;;3.95;100.00
3434;BME280;1730;41.932;25.548;2023-02-18T03:53:13;99819.97;;;3.94;100.00
3434;BME280;1730;41.932;25.548;2023-02-18T03:55:39;99828.72;;;3.96;100.00
3434;BME280;1730;41.932;25.548;2023-02-18T03:58:04;99830.12;;;4.01;100.00
3434;BME280;1730;41.932;25.548;2023-02-18T04:00:30;99830.09;;;4.16;100.00
3434;BME280;1730;41.932;25.548;2023-02-18T04:02:56;99691.06;;;3.54;100.00
3434;BME280;1730;41.932;25.548;2023-02-18T04:05:21;99762.59;;;4.01;100.00
3434;BME280;1730;41.932;25.548;2023-02-18T04:07:47;99829.88;;;4.19;100.00
3434;BME280;1730;41.932;25.548;2023-02-18T04:10:12;99445.03;;;2.08;100.00
3434;BME280;1730;41.932;25.548;2023-02-18T04:12:38;99821.72;;;4.34;100.00
3434;BME280;1730;41.932;25.548;2023-02-18T04:15:04;99803.56;;;4.52;100.00
3434;BME280;1730;41.932;25.548;2023-02-18T04:17:32;99825.19;;;4.74;100.00
3434;BME280;1730;41.932;25.548;2023-02-18T04:19:57;99850.91;;;4.63;100.00
3434;BME280;1730;41.932;25.548;2023-02-18T04:22:23;99672.78;;;3.75;100.00
3434;BME280;1730;41.932;25.548;2023-02-18T04:24:48;99839.63;;;4.32;100.00
3434;BME280;1730;41.932;25.548;2023-02-18T04:27:14;99465.34;;;2.23;100.00
3434;BME280;1730;41.932;25.548;2023-02-18T04:29:39;99837.66;;;4.61;100.00
3434;BME280;1730;41.932;25.548;2023-02-18T04:32:05;99462.47;;;2.26;100.00
3434;BME280;1730;41.932;25.548;2023-02-18T04:34:31;99725.00;;;3.64;100.00
3434;BME280;1730;41.932;25.548;2023-02-18T04:36:57;99842.38;;;4.58;100.00
3434;BME280;1730;41.932;25.548;2023-02-18T04:39:23;99841.37;;;4.46;100.00
3434;BME280;1730;41.932;25.548;2023-02-18T04:41:48;99838.19;;;4.53;100.00
3434;BME280;1730;41.932;25.548;2023-02-18T04:44:14;99841.97;;;4.64;100.00
3434;BME280;1730;41.932;25.548;2023-02-18T04:46:39;99808.81;;;4.41;100.00
3434;BME280;1730;41.932;25.548;2023-02-18T04:49:05;99708.31;;;3.75;100.00
3434;BME280;1730;41.932;25.548;2023-02-18T04:51:30;99839.50;;;4.61;100.00
3434;BME280;1730;41.932;25.548;2023-02-18T04:53:56;99759.59;;;4.05;100.00
3434;BME280;1730;41.932;25.548;2023-02-18T04:56:21;99676.72;;;3.69;100.00
3434;BME280;1730;41.932;25.548;2023-02-18T04:58:47;99834.81;;;4.64;100.00
3434;BME280;1730;41.932;25.548;2023-02-18T05:01:13;99783.69;;;4.31;100.00
3434;BME280;1730;41.932;25.548;2023-02-18T05:03:38;99841.97;;;4.76;100.00
3434;BME280;1730;41.932;25.548;2023-02-18T05:06:04;99837.16;;;4.56;100.00
3434;BME280;1730;41.932;25.548;2023-02-18T05:08:29;99697.31;;;3.67;100.00
3434;BME280;1730;41.932;25.548;2023-02-18T05:10:55;99822.12;;;4.28;100.00
3434;BME280;1730;41.932;25.548;2023-02-18T05:13:21;99809.66;;;4.41;100.00
3434;BME280;1730;41.932;25.548;2023-02-18T05:15:47;99832.00;;;4.66;100.00
3434;BME280;1730;41.932;25.548;2023-02-18T05:18:13;99832.94;;;4.52;100.00
3434;BME280;1730;41.932;25.548;2023-02-18T05:20:39;99707.44;;;3.75;100.00
3434;BME280;1730;41.932;25.548;2023-02-18T05:23:05;99811.50;;;4.53;100.00
3434;BME280;1730;41.932;25.548;2023-02-18T05:25:30;99818.47;;;4.69;100.00
3434;BME280;1730;41.932;25.548;2023-02-18T05:27:56;99827.66;;;4.65;100.00
3434;BME280;1730;41.932;25.548;2023-02-18T05:30:21;99822.41;;;4.63;100.00
3434;BME280;1730;41.932;25.548;2023-02-18T05:32:47;99677.50;;;3.44;100.00
3434;BME280;1730;41.932;25.548;2023-02-18T05:35:12;99824.06;;;4.39;100.00
3434;BME280;1730;41.932;25.548;2023-02-18T05:37:38;99827.50;;;4.53;100.00
3434;BME280;1730;41.932;25.548;2023-02-18T05:40:04;99796.69;;;4.23;100.00
3434;BME280;1730;41.932;25.548;2023-02-18T05:42:30;99827.19;;;4.45;100.00
3434;BME280;1730;41.932;25.548;2023-02-18T05:44:57;99791.84;;;4.42;100.00
3434;BME280;1730;41.932;25.548;2023-02-18T05:47:23;99817.37;;;4.59;100.00
3434;BME280;1730;41.932;25.548;2023-02-18T05:49:49;99822.31;;;4.77;100.00
3434;BME280;1730;41.932;25.548;2023-02-18T05:52:16;99833.41;;;4.84;100.00
3434;BME280;1730;41.932;25.548;2023-02-18T05:54:42;99826.06;;;5.13;100.00
3434;BME280;1730;41.932;25.548;2023-02-18T05:57:09;99830.19;;;5.55;100.00
3434;BME280;1730;41.932;25.548;2023-02-18T05:59:35;99678.63;;;4.82;100.00
3434;BME280;1730;41.932;25.548;2023-02-18T06:02:01;99712.22;;;4.97;100.00
3434;BME280;1730;41.932;25.548;2023-02-18T06:04:26;99706.75;;;5.12;100.00
3434;BME280;1730;41.932;25.548;2023-02-18T06:06:52;99812.91;;;6.08;100.00
3434;BME280;1730;41.932;25.548;2023-02-18T06:09:17;99685.31;;;5.61;100.00
3434;BME280;1730;41.932;25.548;2023-02-18T06:11:43;99661.97;;;5.63;100.00
3434;BME280;1730;41.932;25.548;2023-02-18T06:14:08;99804.59;;;6.58;100.00
3434;BME280;1730;41.932;25.548;2023-02-18T06:16:34;99785.13;;;6.67;100.00
3434;BME280;1730;41.932;25.548;2023-02-18T06:18:59;99793.72;;;6.95;100.00
3434;BME280;1730;41.932;25.548;2023-02-18T06:21:25;99681.97;;;6.51;100.00
3434;BME280;1730;41.932;25.548;2023-02-18T06:23:50;99789.22;;;7.17;100.00
3434;BME280;1730;41.932;25.548;2023-02-18T06:26:16;99797.75;;;7.11;100.00
3434;BME280;1730;41.932;25.548;2023-02-18T06:28:42;99786.81;;;7.37;100.00
3434;BME280;1730;41.932;25.548;2023-02-18T06:31:07;99647.25;;;6.94;100.00
3434;BME280;1730;41.932;25.548;2023-02-18T06:33:33;99660.66;;;7.05;100.00
3434;BME280;1730;41.932;25.548;2023-02-18T06:36:04;99677.84;;;7.13;100.00
3434;BME280;1730;41.932;25.548;2023-02-18T06:38:40;99775.09;;;8.03;100.00
3434;BME280;1730;41.932;25.548;2023-02-18T06:41:07;99774.47;;;7.99;100.00
3434;BME280;1730;41.932;25.548;2023-02-18T06:43:32;99766.75;;;8.49;100.00
3434;BME280;1730;41.932;25.548;2023-02-18T06:45:58;99765.09;;;8.78;100.00
3434;BME280;1730;41.932;25.548;2023-02-18T06:48:24;99752.03;;;8.74;100.00
3434;BME280;1730;41.932;25.548;2023-02-18T06:50:49;99624.31;;;8.28;100.00
3434;BME280;1730;41.932;25.548;2023-02-18T06:53:15;99765.56;;;9.14;100.00
3434;BME280;1730;41.932;25.548;2023-02-18T06:55:42;99769.56;;;8.89;100.00
3434;BME280;1730;41.932;25.548;2023-02-18T06:58:09;99747.88;;;9.11;100.00
3434;BME280;1730;41.932;25.548;2023-02-18T07:00:35;99767.91;;;9.28;100.00
3434;BME280;1730;41.932;25.548;2023-02-18T07:03:01;99665.13;;;8.94;100.00
3434;BME280;1730;41.932;25.548;2023-02-18T07:05:27;99730.50;;;9.74;100.00
3434;BME280;1730;41.932;25.548;2023-02-18T07:07:53;99742.09;;;10.24;100.00
3434;BME280;1730;41.932;25.548;2023-02-18T07:10:18;99756.97;;;10.28;100.00
3434;BME280;1730;41.932;25.548;2023-02-18T07:12:44;99737.34;;;9.98;100.00
3434;BME280;1730;41.932;25.548;2023-02-18T07:15:10;99658.66;;;9.94;100.00
3434;BME280;1730;41.932;25.548;2023-02-18T07:17:35;99738.09;;;10.57;100.00
3434;BME280;1730;41.932;25.548;2023-02-18T07:20:02;99665.34;;;10.19;100.00
3434;BME280;1730;41.932;25.548;2023-02-18T07:22:28;99729.81;;;10.78;100.00
3434;BME280;1730;41.932;25.548;2023-02-18T07:24:54;99721.47;;;11.18;100.00
3434;BME280;1730;41.932;25.548;2023-02-18T07:27:20;99567.81;;;10.52;100.00
3434;BME280;1730;41.932;25.548;2023-02-18T07:29:47;99683.69;;;11.63;100.00
3434;BME280;1730;41.932;25.548;2023-02-18T07:32:14;99711.41;;;11.92;100.00
3434;BME280;1730;41.932;25.548;2023-02-18T07:34:40;99703.94;;;12.47;100.00
3434;BME280;1730;41.932;25.548;2023-02-18T07:37:05;99701.16;;;12.57;100.00
3434;BME280;1730;41.932;25.548;2023-02-18T07:39:39;99696.59;;;12.57;100.00
3434;BME280;1730;41.932;25.548;2023-02-18T07:42:05;99672.97;;;12.85;100.00
3434;BME280;1730;41.932;25.548;2023-02-18T07:44:30;99690.88;;;12.86;100.00
3434;BME280;1730;41.932;25.548;2023-02-18T07:46:56;99709.19;;;12.67;100.00
3434;BME280;1730;41.932;25.548;2023-02-18T07:49:22;99658.97;;;12.98;100.00
3434;BME280;1730;41.932;25.548;2023-02-18T07:51:48;99694.38;;;13.04;100.00
3434;BME280;1730;41.932;25.548;2023-02-18T07:54:14;99552.75;;;12.28;100.00
3434;BME280;1730;41.932;25.548;2023-02-18T07:56:40;99675.47;;;12.87;100.00
3434;BME280;1730;41.932;25.548;2023-02-18T07:59:07;99200.34;;;10.16;100.00
3434;BME280;1730;41.932;25.548;2023-02-18T08:01:33;99702.50;;;13.38;100.00
3434;BME280;1730;41.932;25.548;2023-02-18T08:03:58;99514.47;;;12.49;100.00
3434;BME280;1730;41.932;25.548;2023-02-18T08:06:30;99616.34;;;13.00;100.00
3434;BME280;1730;41.932;25.548;2023-02-18T08:08:57;99671.09;;;13.62;100.00
3434;BME280;1730;41.932;25.548;2023-02-18T08:11:22;99687.47;;;14.26;100.00
3434;BME280;1730;41.932;25.548;2023-02-18T08:13:48;99303.44;;;12.16;100.00
3434;BME280;1730;41.932;25.548;2023-02-18T08:16:15;99668.19;;;14.46;100.00
3434;BME280;1730;41.932;25.548;2023-02-18T08:18:41;99672.44;;;14.56;100.00
3434;BME280;1730;41.932;25.548;2023-02-18T08:21:06;99664.41;;;14.79;100.00
3434;BME280;1730;41.932;25.548;2023-02-18T08:23:32;99567.47;;;14.16;100.00
3434;BME280;1730;41.932;25.548;2023-02-18T08:25:57;99656.97;;;14.73;100.00
3434;BME280;1730;41.932;25.548;2023-02-18T08:28:23;99653.62;;;15.10;100.00
3434;BME280;1730;41.932;25.548;2023-02-18T08:30:50;99612.53;;;14.58;100.00
3434;BME280;1730;41.932;25.548;2023-02-18T08:33:17;99641.81;;;14.95;100.00
3434;BME280;1730;41.932;25.548;2023-02-18T08:35:44;99572.72;;;14.97;97.16
3434;BME280;1730;41.932;25.548;2023-02-18T08:38:10;99639.97;;;15.96;93.49
3434;BME280;1730;41.932;25.548;2023-02-18T08:40:35;99541.66;;;15.61;90.69
3434;BME280;1730;41.932;25.548;2023-02-18T08:43:01;99634.41;;;16.12;89.34
3434;BME280;1730;41.932;25.548;2023-02-18T08:45:26;99502.62;;;15.54;89.18
3434;BME280;1730;41.932;25.548;2023-02-18T08:47:52;99632.66;;;16.56;87.49
3434;BME280;1730;41.932;25.548;2023-02-18T08:50:18;99625.88;;;17.19;82.84
3434;BME280;1730;41.932;25.548;2023-02-18T08:52:46;99529.69;;;16.45;80.10
3434;BME280;1730;41.932;25.548;2023-02-18T08:55:12;99646.41;;;17.51;77.24
3434;BME280;1730;41.932;25.548;2023-02-18T08:57:37;99643.16;;;17.41;76.53
3434;BME280;1730;41.932;25.548;2023-02-18T09:00:03;99644.06;;;17.48;73.38
3434;BME280;1730;41.932;25.548;2023-02-18T09:02:30;99636.94;;;17.62;70.58
3434;BME280;1730;41.932;25.548;2023-02-18T09:04:56;99654.41;;;17.67;70.32
3434;BME280;1730;41.932;25.548;2023-02-18T09:07:21;99639.66;;;17.62;69.75
3434;BME280;1730;41.932;25.548;2023-02-18T09:09:47;99645.09;;;17.62;69.38
3434;BME280;1730;41.932;25.548;2023-02-18T09:12:12;99505.19;;;16.89;66.88
3434;BME280;1730;41.932;25.548;2023-02-18T09:14:38;99637.81;;;17.83;64.15
3434;BME280;1730;41.932;25.548;2023-02-18T09:17:03;99643.69;;;17.66;64.58
3434;BME280;1730;41.932;25.548;2023-02-18T09:19:28;99614.69;;;17.79;63.24
3434;BME280;1730;41.932;25.548;2023-02-18T09:21:54;99524.62;;;17.37;61.60
3434;BME280;1730;41.932;25.548;2023-02-18T09:24:22;99641.09;;;17.79;62.18
3434;BME280;1730;41.932;25.548;2023-02-18T09:26:49;99638.13;;;17.95;62.38
3434;BME280;1730;41.932;25.548;2023-02-18T09:29:15;99615.97;;;18.05;60.22
3434;BME280;1730;41.932;25.548;2023-02-18T09:31:41;99642.31;;;18.33;60.10
3434;BME280;1730;41.932;25.548;2023-02-18T09:34:06;99641.22;;;18.28;59.29
3434;BME280;1730;41.932;25.548;2023-02-18T09:36:32;99642.69;;;18.09;60.45
3434;BME280;1730;41.932;25.548;2023-02-18T09:38:58;99630.72;;;18.31;57.71
3434;BME280;1730;41.932;25.548;2023-02-18T09:41:58;99502.31;;;17.69;56.20
3434;BME280;1730;41.932;25.548;2023-02-18T09:44:34;99636.56;;;18.50;52.34
3434;BME280;1730;41.932;25.548;2023-02-18T09:49:59;99620.72;;;19.28;49.32
3434;BME280;1730;41.932;25.548;2023-02-18T09:52:31;99538.25;;;18.50;48.73
3434;BME280;1730;41.932;25.548;2023-02-18T09:54:57;99621.56;;;19.29;48.87
3434;BME280;1730;41.932;25.548;2023-02-18T09:57:34;99613.50;;;19.55;47.65
3434;BME280;1730;41.932;25.548;2023-02-18T10:00:09;99489.31;;;18.89;45.34
3434;BME280;1730;41.932;25.548;2023-02-18T10:02:39;99615.06;;;19.84;43.74
3434;BME280;1730;41.932;25.548;2023-02-18T10:05:06;99618.22;;;19.74;41.23
3434;BME280;1730;41.932;25.548;2023-02-18T10:07:38;99560.50;;;19.56;41.94
3434;BME280;1730;41.932;25.548;2023-02-18T10:12:55;99520.16;;;19.24;41.88
3434;BME280;1730;41.932;25.548;2023-02-18T10:15:23;99497.13;;;19.46;40.94
3434;BME280;1730;41.932;25.548;2023-02-18T10:17:53;99602.91;;;20.19;40.51
3434;BME280;1730;41.932;25.548;2023-02-18T10:20:23;99601.25;;;20.25;40.45
3434;BME280;1730;41.932;25.548;2023-02-18T10:22:50;99612.03;;;20.40;40.59
3434;BME280;1730;41.932;25.548;2023-02-18T10:25:19;99594.47;;;20.01;41.07
3434;BME280;1730;41.932;25.548;2023-02-18T10:27:47;99591.75;;;20.21;40.73
3434;BME280;1730;41.932;25.548;2023-02-18T10:32:43;99603.38;;;20.30;40.65
3434;BME280;1730;41.932;25.548;2023-02-18T10:41:38;99528.75;;;20.27;40.33
3434;BME280;1730;41.932;25.548;2023-02-18T10:44:23;99515.72;;;20.16;40.05
3434;BME280;1730;41.932;25.548;2023-02-18T10:47:01;99562.91;;;20.64;39.85
3434;BME280;1730;41.932;25.548;2023-02-18T10:49:51;99556.75;;;20.82;39.64
3434;BME280;1730;41.932;25.548;2023-02-18T10:52:19;99540.72;;;20.92;39.68
3434;BME280;1730;41.932;25.548;2023-02-18T10:57:19;99553.41;;;20.21;40.25
3434;BME280;1730;41.932;25.548;2023-02-18T11:02:40;99540.34;;;20.49;40.30
3434;BME280;1730;41.932;25.548;2023-02-18T11:05:26;99542.03;;;20.63;39.84
3434;BME280;1730;41.932;25.548;2023-02-18T11:07:55;99453.72;;;20.61;39.31
3434;BME280;1730;41.932;25.548;2023-02-18T11:10:24;99339.16;;;20.39;39.67
3434;BME280;1730;41.932;25.548;2023-02-18T11:13:05;99512.78;;;21.91;38.56
3434;BME280;1730;41.932;25.548;2023-02-18T11:15:31;99512.09;;;22.27;37.95
3434;BME280;1730;41.932;25.548;2023-02-18T11:18:11;99517.91;;;22.37;37.10
3434;BME280;1730;41.932;25.548;2023-02-18T11:20:39;99512.00;;;22.15;37.47
3434;BME280;1730;41.932;25.548;2023-02-18T11:25:32;99514.31;;;22.36;36.16
3434;BME280;1730;41.932;25.548;2023-02-18T11:28:01;99507.34;;;22.34;35.86
3434;BME280;1730;41.932;25.548;2023-02-18T11:30:42;99408.94;;;21.25;36.35
3434;BME280;1730;41.932;25.548;2023-02-18T11:33:36;99490.94;;;22.27;36.18
3434;BME280;1730;41.932;25.548;2023-02-18T11:36:24;99494.69;;;22.08;36.17
3434;BME280;1730;41.932;25.548;2023-02-18T11:38:56;99479.91;;;21.46;36.11
3434;BME280;1730;41.932;25.548;2023-02-18T11:41:53;99483.22;;;21.62;35.66
3434;BME280;1730;41.932;25.548;2023-02-18T11:44:38;99488.59;;;21.75;36.02
3434;BME280;1730;41.932;25.548;2023-02-18T11:47:22;99487.94;;;22.11;35.49
3434;BME280;1730;41.932;25.548;2023-02-18T11:50:16;99482.06;;;21.76;35.51
3434;BME280;1730;41.932;25.548;2023-02-18T11:52:47;99474.66;;;21.76;35.22
3434;BME280;1730;41.932;25.548;2023-02-18T11:58:02;99453.41;;;21.90;34.82
3434;BME280;1730;41.932;25.548;2023-02-18T12:00:39;99448.75;;;21.97;35.05
3434;BME280;1730;41.932;25.548;2023-02-18T12:03:43;99444.03;;;22.04;35.02
3434;BME280;1730;41.932;25.548;2023-02-18T12:06:34;99446.81;;;22.22;35.21
3434;BME280;1730;41.932;25.548;2023-02-18T12:09:17;99254.66;;;20.74;35.39
3434;BME280;1730;41.932;25.548;2023-02-18T12:11:48;99463.16;;;21.61;36.08
3434;BME280;1730;41.932;25.548;2023-02-18T12:14:20;99466.91;;;21.35;36.23
3434;BME280;1730;41.932;25.548;2023-02-18T12:27:48;99408.34;;;21.17;37.11
3434;BME280;1730;41.932;25.548;2023-02-18T12:35:48;99407.56;;;21.41;36.97
3434;BME280;1730;41.932;25.548;2023-02-18T12:43:31;99384.41;;;21.62;36.90
3434;BME280;1730;41.932;25.548;2023-02-18T12:49:27;99394.75;;;21.59;37.45
3434;BME280;1730;41.932;25.548;2023-02-18T12:57:53;99381.59;;;21.68;39.80
3434;BME280;1730;41.932;25.548;2023-02-18T13:00:44;99392.97;;;21.72;40.56
3434;BME280;1730;41.932;25.548;2023-02-18T13:11:39;99383.00;;;21.21;42.78
3434;BME280;1730;41.932;25.548;2023-02-18T13:14:30;99365.09;;;21.19;42.76
3434;BME280;1730;41.932;25.548;2023-02-18T13:17:00;99358.84;;;21.05;42.88
3434;BME280;1730;41.932;25.548;2023-02-18T13:19:43;99310.06;;;20.76;42.30
3434;BME280;1730;41.932;25.548;2023-02-18T13:22:11;99272.03;;;20.54;41.68
3434;BME280;1730;41.932;25.548;2023-02-18T13:24:40;99351.47;;;20.99;41.60
3434;BME280;1730;41.932;25.548;2023-02-18T13:27:34;99358.72;;;20.87;41.58
3434;BME280;1730;41.932;25.548;2023-02-18T13:40:28;99357.16;;;20.66;42.25
3434;BME280;1730;41.932;25.548;2023-02-18T13:43:16;99345.94;;;20.74;42.39
3434;BME280;1730;41.932;25.548;2023-02-18T13:45:42;99353.81;;;20.95;42.32
3434;BME280;1730;41.932;25.548;2023-02-18T13:48:27;99361.50;;;21.18;42.09
3434;BME280;1730;41.932;25.548;2023-02-18T13:51:01;99355.97;;;21.25;41.98
3434;BME280;1730;41.932;25.548;2023-02-18T13:53:29;99365.91;;;21.50;41.83
3434;BME280;1730;41.932;25.548;2023-02-18T13:58:34;99352.03;;;21.45;41.74
3434;BME280;1730;41.932;25.548;2023-02-18T14:06:20;99352.72;;;21.84;41.29
3434;BME280;1730;41.932;25.548;2023-02-18T14:08:47;99357.16;;;21.85;40.99
3434;BME280;1730;41.932;25.548;2023-02-18T14:13:46;99366.13;;;21.98;40.76
3434;BME280;1730;41.932;25.548;2023-02-18T14:16:13;99347.16;;;21.90;40.62
3434;BME280;1730;41.932;25.548;2023-02-18T14:34:14;99348.72;;;21.05;41.57
3434;BME280;1730;41.932;25.548;2023-02-18T14:50:17;99352.59;;;20.91;43.02
3434;BME280;1730;41.932;25.548;2023-02-18T14:52:47;99300.16;;;20.43;43.44
3434;BME280;1730;41.932;25.548;2023-02-18T14:55:23;99359.91;;;20.66;43.71
3434;BME280;1730;41.932;25.548;2023-02-18T15:00:47;99217.41;;;19.70;44.28
3434;BME280;1730;41.932;25.548;2023-02-18T15:03:15;99331.31;;;20.42;44.38
3434;BME280;1730;41.932;25.548;2023-02-18T15:05:41;99333.03;;;20.37;44.19
3434;BME280;1730;41.932;25.548;2023-02-18T15:10:45;99336.47;;;20.12;44.53
3434;BME280;1730;41.932;25.548;2023-02-18T15:13:34;99320.72;;;19.95;44.45
3434;BME280;1730;41.932;25.548;2023-02-18T15:16:03;98945.66;;;17.31;44.78
3434;BME280;1730;41.932;25.548;2023-02-18T15:18:40;99257.22;;;19.40;44.60
3434;BME280;1730;41.932;25.548;2023-02-18T15:21:12;99340.34;;;19.78;44.77
3434;BME280;1730;41.932;25.548;2023-02-18T15:23:40;99343.28;;;19.70;44.73
3434;BME280;1730;41.932;25.548;2023-02-18T15:26:13;99221.31;;;18.90;45.03
3434;BME280;1730;41.932;25.548;2023-02-18T15:28:49;99335.31;;;19.49;45.01
3434;BME280;1730;41.932;25.548;2023-02-18T15:31:15;99328.97;;;19.42;45.02
3434;BME280;1730;41.932;25.548;2023-02-18T15:33:46;99325.81;;;19.32;45.13
3434;BME280;1730;41.932;25.548;2023-02-18T15:36:13;99304.34;;;19.09;45.32
3434;BME280;1730;41.932;25.548;2023-02-18T15:38:39;99339.50;;;19.25;45.22
3434;BME280;1730;41.932;25.548;2023-02-18T15:41:14;99354.00;;;19.13;45.52
3434;BME280;1730;41.932;25.548;2023-02-18T15:43:55;99215.69;;;18.18;45.43
3434;BME280;1730;41.932;25.548;2023-02-18T15:46:24;99355.63;;;18.81;46.11
3434;BME280;1730;41.932;25.548;2023-02-18T15:48:51;99360.22;;;18.80;45.86
3434;BME280;1730;41.932;25.548;2023-02-18T15:51:20;99358.13;;;18.76;46.06
3434;BME280;1730;41.932;25.548;2023-02-18T15:53:50;99357.03;;;18.70;46.11
3434;BME280;1730;41.932;25.548;2023-02-18T15:56:33;99367.97;;;18.64;46.37